Time;durP1;ratioP1;P1;durP2;ratioP2;P2;SDS_P1;SDS_P2;PMS_P1;PMS_P2;Temp;Humidity;BMP_temperature;BMP_pressure;BME280_temperature;BME280_humidity;BME280_pressure;Samples;Min_cycle;Max_cycle;Signal;HPM_P1;HPM_P2
2023/06/23 00:02:06;;;;;;;2.83;0.93;;;19.00;99.90;19.20;100393.00;;;;4969187;28;89235;-67
2023/06/23 00:04:32;;;;;;;2.95;1.60;;;19.00;99.90;19.10;100389.00;;;;4952885;28;102094;-68
2023/06/23 00:06:59;;;;;;;2.08;1.25;;;19.00;99.90;19.10;100369.00;;;;4971940;28;99940;-67
2023/06/23 00:09:25;;;;;;;3.08;1.23;;;19.00;99.90;19.10;100388.00;;;;4970584;28;88811;-65
2023/06/23 00:11:51;;;;;;;1.67;1.05;;;19.00;99.90;19.00;100406.00;;;;4967414;28;88615;-65
2023/06/23 00:14:16;;;;;;;1.60;1.00;;;18.90;99.90;19.00;100412.00;;;;4970416;28;89276;-66
2023/06/23 00:16:42;;;;;;;1.42;1.33;;;18.80;99.90;19.00;100400.00;;;;4967987;28;87947;-66
2023/06/23 00:19:08;;;;;;;3.45;1.85;;;18.80;99.90;18.90;100388.00;;;;4966639;28;108517;-66
2023/06/23 00:21:33;;;;;;;2.00;1.80;;;18.80;99.90;18.90;100378.00;;;;4970612;28;106402;-66
2023/06/23 00:23:59;;;;;;;2.38;1.35;;;18.80;99.90;18.90;100381.00;;;;4970195;28;87927;-65
2023/06/23 00:26:25;;;;;;;2.08;1.88;;;18.80;99.90;18.90;100381.00;;;;4968868;28;109572;-65
2023/06/23 00:28:51;;;;;;;2.13;1.92;;;18.80;99.90;18.90;100384.00;;;;4968572;28;115745;-67
2023/06/23 00:31:17;;;;;;;1.83;1.40;;;18.80;99.90;18.90;100377.00;;;;4969168;28;87896;-66
2023/06/23 00:33:43;;;;;;;1.83;1.67;;;18.70;99.90;18.90;100375.00;;;;4973151;28;102895;-66
2023/06/23 00:36:09;;;;;;;1.88;1.70;;;18.80;99.90;18.90;100372.00;;;;4978075;28;89248;-66
2023/06/23 00:38:34;;;;;;;2.67;1.65;;;18.80;99.90;18.90;100359.00;;;;4974487;28;88065;-67
2023/06/23 00:41:01;;;;;;;1.52;1.42;;;18.80;99.90;18.90;100348.00;;;;4973334;28;88603;-66
2023/06/23 00:43:30;;;;;;;3.38;1.83;;;18.80;99.90;18.90;100333.00;;;;4968899;28;87901;-65
2023/06/23 00:46:00;;;;;;;2.42;1.08;;;18.80;99.90;18.90;100308.00;;;;4972698;28;87679;-66
2023/06/23 00:48:25;;;;;;;2.30;1.58;;;18.80;99.90;18.90;100300.00;;;;4958290;28;88704;-65
2023/06/23 00:50:51;;;;;;;1.55;1.45;;;18.80;99.90;18.90;100305.00;;;;4971085;28;117223;-66
2023/06/23 00:53:17;;;;;;;1.65;0.88;;;18.80;99.90;18.90;100285.00;;;;4970604;28;109456;-67
2023/06/23 00:55:44;;;;;;;2.28;1.50;;;18.70;99.90;18.80;100270.00;;;;4968439;28;108458;-65
2023/06/23 00:58:09;;;;;;;2.80;2.22;;;18.70;99.90;18.80;100255.00;;;;4955742;28;88249;-65
2023/06/23 01:00:38;;;;;;;1.95;1.25;;;18.60;99.90;18.80;100247.00;;;;4970712;28;116616;-65
2023/06/23 01:03:04;;;;;;;2.05;1.92;;;18.70;99.90;18.80;100250.00;;;;4968303;28;87976;-65
2023/06/23 01:05:39;;;;;;;2.30;1.63;;;18.60;99.90;18.70;100232.00;;;;4967744;28;108816;-65
2023/06/23 01:08:30;;;;;;;0.98;0.90;;;18.60;99.90;18.70;100239.00;;;;4971876;28;87893;-65
2023/06/23 01:11:13;;;;;;;2.28;1.17;;;18.60;99.90;18.70;100212.00;;;;4956970;28;87854;-65
2023/06/23 01:13:52;;;;;;;3.08;1.58;;;18.60;99.90;18.60;100211.00;;;;4970557;28;88326;-66
2023/06/23 01:16:26;;;;;;;3.85;2.00;;;18.50;99.90;18.60;100192.00;;;;4971332;28;88023;-67
2023/06/23 01:19:18;;;;;;;3.15;1.13;;;18.50;99.90;18.60;100168.00;;;;4972153;28;98309;-65
2023/06/23 01:22:31;;;;;;;1.15;1.05;;;18.50;99.90;18.60;100152.00;;;;4963888;28;87787;-66
2023/06/23 01:25:19;;;;;;;1.58;1.23;;;18.50;99.90;18.60;100135.00;;;;4953431;28;87953;-67
2023/06/23 01:27:47;;;;;;;2.47;0.90;;;18.40;99.90;18.60;100121.00;;;;4950583;28;103964;-67
2023/06/23 01:30:16;;;;;;;0.95;0.95;;;18.40;99.90;18.60;100100.00;;;;4971026;28;88377;-65
2023/06/23 01:32:49;;;;;;;1.48;1.38;;;18.40;99.90;18.60;100092.00;;;;4955452;28;110395;-65
2023/06/23 01:35:29;;;;;;;1.83;1.65;;;18.40;99.90;18.50;100083.00;;;;4972964;28;88281;-67
2023/06/23 01:38:22;;;;;;;1.85;1.38;;;18.40;99.90;18.50;100054.00;;;;4970411;28;87906;-65
2023/06/23 01:40:54;;;;;;;1.23;1.10;;;18.40;99.90;18.50;100051.00;;;;4954152;28;88118;-66
2023/06/23 01:43:29;;;;;;;1.20;1.10;;;18.40;99.90;18.50;100042.00;;;;4968628;28;88025;-66
2023/06/23 01:45:59;;;;;;;1.70;1.60;;;18.30;99.90;18.40;100037.00;;;;4955974;28;87275;-65
2023/06/23 01:48:26;;;;;;;1.60;1.10;;;18.30;99.90;18.40;100020.00;;;;4953730;28;88125;-66
2023/06/23 01:50:53;;;;;;;2.08;1.65;;;18.30;99.90;18.40;100021.00;;;;4968814;28;118482;-66
2023/06/23 01:53:20;;;;;;;2.83;1.70;;;18.30;99.90;18.40;100006.00;;;;4966605;28;116673;-65
2023/06/23 01:55:46;;;;;;;2.17;1.92;;;18.20;99.90;18.30;99996.00;;;;4966032;28;88080;-64
2023/06/23 01:58:14;;;;;;;2.22;1.67;;;18.20;99.90;18.30;99982.00;;;;4949946;28;88010;-64
2023/06/23 02:00:41;;;;;;;1.95;1.42;;;18.20;99.90;18.30;99961.00;;;;4952424;28;118876;-64
2023/06/23 02:03:08;;;;;;;2.30;2.10;;;18.20;99.90;18.30;99968.00;;;;4955028;28;91952;-65
2023/06/23 02:05:36;;;;;;;1.40;1.30;;;18.20;99.90;18.20;99999.00;;;;4965750;28;111825;-65
2023/06/23 02:08:03;;;;;;;2.67;1.25;;;18.20;99.90;18.20;100039.00;;;;4966531;28;89419;-63
2023/06/23 02:10:30;;;;;;;2.78;1.52;;;18.10;99.90;18.20;100096.00;;;;4968025;28;88090;-63
2023/06/23 02:12:57;;;;;;;2.78;1.50;;;18.10;99.90;18.20;100137.00;;;;4968542;28;117960;-64
2023/06/23 02:15:25;;;;;;;2.22;1.80;;;18.10;99.90;18.20;100143.00;;;;4966987;28;87581;-62
2023/06/23 02:17:53;;;;;;;2.38;1.90;;;18.10;99.90;18.20;100159.00;;;;4956122;28;89028;-63
2023/06/23 02:20:20;;;;;;;1.20;1.08;;;18.10;99.90;18.20;100179.00;;;;4973902;28;88350;-64
2023/06/23 02:22:48;;;;;;;2.35;1.67;;;18.10;99.90;18.20;100196.00;;;;4971241;28;88345;-63
2023/06/23 02:25:16;;;;;;;5.68;1.38;;;18.10;99.90;18.20;100200.00;;;;4968506;28;87942;-64
2023/06/23 02:27:42;;;;;;;2.92;2.38;;;18.10;99.90;18.20;100228.00;;;;4968565;28;91560;-63
2023/06/23 02:30:09;;;;;;;2.33;1.95;;;18.10;99.90;18.20;100247.00;;;;4954347;28;89049;-63
2023/06/23 02:32:35;;;;;;;1.65;1.55;;;18.10;99.90;18.30;100258.00;;;;4954453;28;88875;-63
2023/06/23 02:35:09;;;;;;;2.70;2.08;;;18.10;99.90;18.20;100260.00;;;;4953469;28;104370;-62
2023/06/23 02:37:38;;;;;;;3.03;2.25;;;18.20;99.90;18.30;100274.00;;;;4968491;28;87858;-62
2023/06/23 02:40:16;;;;;;;3.30;2.33;;;18.30;99.90;18.30;100272.00;;;;4965512;28;111988;-64
2023/06/23 02:43:06;;;;;;;1.88;1.50;;;18.20;99.90;18.30;100258.00;;;;4973375;28;88695;-64
2023/06/23 02:45:39;;;;;;;2.20;2.00;;;18.20;99.90;18.30;100241.00;;;;4968234;28;88052;-63
2023/06/23 02:48:10;;;;;;;1.80;1.45;;;18.20;99.90;18.30;100230.00;;;;4967228;28;89372;-64
2023/06/23 02:50:38;;;;;;;4.22;1.63;;;18.20;99.90;18.30;100219.00;;;;4967215;28;88487;-64
2023/06/23 02:53:08;;;;;;;3.08;1.67;;;18.20;99.90;18.30;100236.00;;;;4970493;28;118078;-65
2023/06/23 02:55:40;;;;;;;1.75;1.65;;;18.20;99.90;18.30;100225.00;;;;4951771;28;89109;-64
2023/06/23 02:58:09;;;;;;;2.08;1.88;;;18.20;99.90;18.30;100220.00;;;;4953974;28;88000;-61
2023/06/23 03:00:37;;;;;;;2.88;1.92;;;18.20;99.90;18.20;100227.00;;;;4975405;28;88440;-60
2023/06/23 03:03:08;;;;;;;2.08;1.20;;;18.20;99.90;18.20;100239.00;;;;4969841;28;88230;-62
2023/06/23 03:05:34;;;;;;;6.05;2.30;;;18.10;99.90;18.20;100249.00;;;;4968332;28;87919;-61
2023/06/23 03:08:00;;;;;;;3.17;2.50;;;18.10;99.90;18.20;100270.00;;;;4969084;28;88535;-63
2023/06/23 03:10:28;;;;;;;3.55;2.22;;;18.10;99.90;18.30;100274.00;;;;4968343;28;88919;-61
2023/06/23 03:12:54;;;;;;;2.28;2.03;;;18.20;99.90;18.30;100281.00;;;;4973249;28;87885;-61
2023/06/23 03:15:20;;;;;;;3.90;2.63;;;18.20;99.90;18.40;100275.00;;;;4994078;28;109806;-60
2023/06/23 03:17:48;;;;;;;2.22;2.03;;;18.20;99.90;18.40;100276.00;;;;4981226;28;105445;-61
2023/06/23 03:20:36;;;;;;;3.10;2.03;;;18.30;99.90;18.40;100274.00;;;;4969839;28;88298;-61
2023/06/23 03:23:07;;;;;;;3.00;2.35;;;18.30;99.90;18.50;100276.00;;;;4957472;28;109207;-62
2023/06/23 03:25:33;;;;;;;4.15;3.40;;;18.40;99.90;18.50;100260.00;;;;4971574;28;87116;-61
2023/06/23 03:28:04;;;;;;;2.00;1.80;;;18.40;99.90;18.50;100247.00;;;;4972882;28;108943;-62
2023/06/23 03:30:39;;;;;;;2.58;2.03;;;18.40;99.90;18.50;100245.00;;;;4954630;28;88839;-61
2023/06/23 03:33:19;;;;;;;3.55;2.15;;;18.40;99.90;18.50;100254.00;;;;4955453;28;109239;-61
2023/06/23 03:35:46;;;;;;;4.50;3.30;;;18.40;99.90;18.60;100254.00;;;;4968914;28;87631;-61
2023/06/23 03:38:17;;;;;;;3.80;2.88;;;18.40;99.90;18.60;100252.00;;;;4958602;28;88131;-61
2023/06/23 03:41:02;;;;;;;4.97;3.25;;;18.50;99.90;18.60;100246.00;;;;4968786;28;97187;-61
2023/06/23 03:43:34;;;;;;;5.47;4.43;;;18.50;99.90;18.60;100232.00;;;;4956600;28;88202;-61
2023/06/23 03:46:07;;;;;;;3.47;3.17;;;18.50;99.90;18.60;100229.00;;;;4971034;28;89322;-63
2023/06/23 03:48:38;;;;;;;2.80;2.47;;;18.50;99.90;18.70;100232.00;;;;4954532;28;100224;-61
2023/06/23 03:51:05;;;;;;;7.22;3.75;;;18.50;99.90;18.70;100241.00;;;;4955255;28;116596;-61
2023/06/23 03:53:32;;;;;;;3.30;3.00;;;18.60;99.90;18.70;100247.00;;;;4954660;28;116025;-61
2023/06/23 03:56:00;;;;;;;3.85;3.08;;;18.60;99.90;18.70;100248.00;;;;4954907;28;88102;-62
2023/06/23 03:58:34;;;;;;;3.33;2.38;;;18.60;99.90;18.80;100270.00;;;;4954961;28;88921;-62
2023/06/23 04:01:02;;;;;;;4.97;3.15;;;18.60;99.90;18.80;100264.00;;;;4954443;28;89046;-60
2023/06/23 04:03:32;;;;;;;3.35;2.92;;;18.70;99.90;18.80;100264.00;;;;4971960;28;117862;-61
2023/06/23 04:05:59;;;;;;;4.70;3.45;;;18.60;99.90;18.80;100266.00;;;;4969985;28;110578;-61
2023/06/23 04:08:30;;;;;;;3.72;3.00;;;18.70;99.90;18.80;100259.00;;;;4952687;28;87910;-62
2023/06/23 04:10:59;;;;;;;2.50;2.30;;;18.70;99.90;18.90;100269.00;;;;4955654;28;89417;-61
2023/06/23 04:13:26;;;;;;;3.95;3.53;;;18.70;99.90;18.90;100279.00;;;;4959260;28;87893;-62
2023/06/23 04:15:56;;;;;;;3.25;2.95;;;18.80;99.90;18.90;100288.00;;;;4951796;28;111118;-61
2023/06/23 04:18:24;;;;;;;3.33;3.03;;;18.80;99.90;19.00;100289.00;;;;4950884;28;95812;-63
2023/06/23 04:20:53;;;;;;;3.63;2.92;;;18.80;99.90;19.00;100286.00;;;;4956280;28;88621;-59
2023/06/23 04:23:20;;;;;;;3.72;3.15;;;18.90;99.90;19.00;100297.00;;;;4969342;28;92286;-61
2023/06/23 04:25:50;;;;;;;3.35;2.75;;;18.90;99.90;19.10;100291.00;;;;4955061;28;110508;-61
2023/06/23 04:28:23;;;;;;;5.10;3.75;;;18.90;99.90;19.10;100279.00;;;;4951156;28;88225;-60
2023/06/23 04:30:51;;;;;;;3.28;2.78;;;18.90;99.90;19.10;100270.00;;;;4968918;28;89394;-61
2023/06/23 04:33:17;;;;;;;4.45;3.30;;;19.00;99.90;19.20;100273.00;;;;4955144;28;88721;-62
2023/06/23 04:35:43;;;;;;;7.97;3.67;;;19.00;99.90;19.20;100282.00;;;;4949648;28;102506;-61
2023/06/23 04:38:12;;;;;;;6.30;2.60;;;19.00;99.90;19.20;100287.00;;;;4964056;28;87777;-61
2023/06/23 04:40:53;;;;;;;3.95;3.22;;;19.10;99.90;19.20;100296.00;;;;4954388;28;87942;-60
2023/06/23 04:43:37;;;;;;;3.90;3.53;;;19.10;99.90;19.20;100285.00;;;;4952621;28;104945;-61
2023/06/23 04:46:15;;;;;;;5.22;3.42;;;19.10;99.90;19.20;100277.00;;;;4943941;28;90335;-61
2023/06/23 04:48:47;;;;;;;3.65;2.92;;;19.10;99.90;19.20;100288.00;;;;4968627;28;88873;-59
2023/06/23 04:51:15;;;;;;;3.70;2.83;;;19.10;99.90;19.30;100287.00;;;;4961119;28;88305;-60
2023/06/23 04:53:49;;;;;;;6.20;4.35;;;19.10;99.90;19.30;100277.00;;;;4962774;28;88142;-60
2023/06/23 04:56:20;;;;;;;6.55;3.50;;;19.10;99.90;19.30;100271.00;;;;4964375;28;92269;-62
2023/06/23 04:58:53;;;;;;;3.90;3.47;;;19.10;99.90;19.30;100264.00;;;;4951343;28;97510;-61
2023/06/23 05:01:20;;;;;;;2.75;2.55;;;19.20;99.90;19.30;100256.00;;;;4950171;28;88706;-62
2023/06/23 05:03:48;;;;;;;3.60;2.97;;;19.20;99.90;19.40;100260.00;;;;4951513;28;116747;-62
2023/06/23 05:06:17;;;;;;;4.13;3.03;;;19.20;99.90;19.30;100256.00;;;;4809944;28;3989178;-61
2023/06/23 05:08:46;;;;;;;4.10;3.03;;;19.20;99.90;19.30;100255.00;;;;4950825;28;88407;-62
2023/06/23 05:11:14;;;;;;;3.58;3.13;;;19.20;99.90;19.30;100254.00;;;;4967698;28;96083;-62
2023/06/23 05:13:41;;;;;;;3.38;3.08;;;19.20;99.90;19.30;100252.00;;;;4969188;28;89543;-61
2023/06/23 05:16:10;;;;;;;4.05;3.00;;;19.20;99.90;19.30;100257.00;;;;4968315;28;87976;-61
2023/06/23 05:18:38;;;;;;;3.75;3.25;;;19.20;99.90;19.30;100266.00;;;;4967892;28;88130;-61
2023/06/23 05:21:05;;;;;;;3.85;2.78;;;19.20;99.90;19.30;100270.00;;;;4970227;28;106937;-62
2023/06/23 05:23:37;;;;;;;4.30;3.45;;;19.20;99.90;19.30;100273.00;;;;4970835;28;108402;-63
2023/06/23 05:26:06;;;;;;;4.15;2.92;;;19.10;99.90;19.30;100286.00;;;;4954849;28;88192;-62
2023/06/23 05:28:37;;;;;;;5.60;2.65;;;19.10;99.90;19.30;100277.00;;;;4950541;28;88009;-62
2023/06/23 05:31:05;;;;;;;6.25;3.20;;;19.10;99.90;19.30;100267.00;;;;4968308;28;93479;-63
2023/06/23 05:33:37;;;;;;;3.70;3.38;;;19.10;99.90;19.30;100260.00;;;;4969084;28;89328;-62
2023/06/23 05:36:07;;;;;;;4.25;3.30;;;19.10;99.90;19.30;100256.00;;;;4956750;28;87926;-62
2023/06/23 05:38:36;;;;;;;3.70;3.20;;;19.20;99.90;19.40;100265.00;;;;4968299;28;102437;-60
2023/06/23 05:41:02;;;;;;;5.30;3.97;;;19.20;99.90;19.40;100261.00;;;;4966540;28;88698;-62
2023/06/23 05:43:28;;;;;;;3.88;3.47;;;19.30;99.90;19.50;100259.00;;;;4971490;28;104858;-61
2023/06/23 05:45:55;;;;;;;3.70;3.25;;;19.30;99.90;19.50;100264.00;;;;4969364;28;102307;-61
2023/06/23 05:48:37;;;;;;;7.10;3.80;;;19.30;99.90;19.50;100263.00;;;;4971174;28;108676;-61
2023/06/23 05:51:08;;;;;;;4.53;3.25;;;19.30;99.90;19.60;100266.00;;;;4953907;28;88113;-62
2023/06/23 05:53:56;;;;;;;4.35;3.95;;;19.40;99.90;19.60;100262.00;;;;4972947;28;87822;-62
2023/06/23 05:56:39;;;;;;;5.15;3.58;;;19.50;99.90;19.80;100275.00;;;;4973388;28;87096;-62
2023/06/23 05:59:16;;;;;;;4.93;3.50;;;19.50;99.90;19.90;100264.00;;;;4970859;28;93252;-63
2023/06/23 06:01:45;;;;;;;3.83;3.38;;;19.70;99.90;20.10;100273.00;;;;4967556;28;88664;-63
2023/06/23 06:04:15;;;;;;;4.35;2.72;;;19.90;99.90;20.30;100271.00;;;;4956542;28;88782;-63
2023/06/23 06:06:41;;;;;;;4.28;3.88;;;20.00;99.90;20.40;100274.00;;;;4968741;28;101835;-62
2023/06/23 06:09:11;;;;;;;4.53;3.50;;;20.20;99.90;20.50;100273.00;;;;4959354;28;88054;-64
2023/06/23 06:11:39;;;;;;;5.82;3.70;;;20.30;99.90;20.60;100271.00;;;;4954598;28;100356;-63
2023/06/23 06:14:07;;;;;;;3.33;3.05;;;20.40;99.90;20.70;100272.00;;;;4970170;28;95392;-63
2023/06/23 06:16:35;;;;;;;5.13;4.03;;;20.50;99.90;20.80;100270.00;;;;4958340;28;88088;-64
2023/06/23 06:19:02;;;;;;;3.65;3.30;;;20.60;99.90;20.80;100261.00;;;;4972813;28;94493;-63
2023/06/23 06:21:30;;;;;;;6.47;4.05;;;20.70;99.90;20.90;100266.00;;;;4973331;28;93236;-64
2023/06/23 06:23:57;;;;;;;4.68;3.38;;;20.70;99.90;21.00;100256.00;;;;4954819;28;87875;-63
2023/06/23 06:26:24;;;;;;;5.68;3.17;;;20.80;99.90;21.10;100267.00;;;;4952523;28;111124;-63
2023/06/23 06:28:54;;;;;;;4.70;4.05;;;20.90;99.90;21.20;100268.00;;;;4970661;28;89189;-64
2023/06/23 06:31:21;;;;;;;4.35;3.95;;;21.00;99.90;21.30;100265.00;;;;4950218;28;88766;-63
2023/06/23 06:33:51;;;;;;;4.43;3.28;;;21.10;99.90;21.40;100262.00;;;;4950909;28;101380;-63
2023/06/23 06:36:19;;;;;;;4.15;3.75;;;21.20;99.90;21.70;100265.00;;;;4951561;28;88187;-63
2023/06/23 06:38:47;;;;;;;4.20;3.22;;;21.40;99.90;21.90;100262.00;;;;4969828;28;88010;-64
2023/06/23 06:41:14;;;;;;;4.53;3.75;;;21.60;99.90;22.10;100265.00;;;;4953715;28;100271;-63
2023/06/23 06:43:40;;;;;;;3.30;3.00;;;21.80;99.90;22.20;100264.00;;;;4968146;28;88031;-65
2023/06/23 06:46:07;;;;;;;2.47;2.28;;;22.00;99.90;22.40;100259.00;;;;4952197;28;87271;-66
2023/06/23 06:48:34;;;;;;;2.90;2.50;;;22.20;99.90;22.60;100253.00;;;;4970150;28;87946;-63
2023/06/23 06:51:01;;;;;;;2.97;2.45;;;22.40;99.90;22.90;100252.00;;;;4965598;28;97146;-64
2023/06/23 06:53:29;;;;;;;2.30;1.92;;;22.60;99.90;23.20;100251.00;;;;4954300;28;88856;-63
2023/06/23 06:55:55;;;;;;;3.28;2.38;;;22.80;99.90;23.40;100242.00;;;;4970025;28;88022;-63
2023/06/23 06:58:21;;;;;;;3.35;2.22;;;23.10;99.90;23.70;100251.00;;;;4956569;28;99551;-64
2023/06/23 07:00:47;;;;;;;2.20;1.33;;;23.30;99.90;23.80;100246.00;;;;4953915;28;116509;-63
2023/06/23 07:03:13;;;;;;;3.35;2.63;;;23.60;99.90;24.00;100247.00;;;;4952403;28;117909;-64
2023/06/23 07:05:40;;;;;;;2.63;1.77;;;23.70;99.90;24.10;100243.00;;;;4954512;28;87755;-63
2023/06/23 07:08:06;;;;;;;3.55;2.53;;;23.80;99.90;24.20;100245.00;;;;4965301;28;100553;-65
2023/06/23 07:10:34;;;;;;;2.55;1.70;;;24.00;99.90;24.40;100253.00;;;;4950375;28;101574;-64
2023/06/23 07:13:00;;;;;;;1.95;1.60;;;24.10;99.90;24.50;100249.00;;;;4956217;28;88049;-64
2023/06/23 07:15:26;;;;;;;1.65;1.55;;;24.30;99.90;24.60;100255.00;;;;4961820;28;87666;-64
2023/06/23 07:17:52;;;;;;;3.50;1.50;;;24.60;99.90;24.70;100259.00;;;;4959130;28;97874;-64
2023/06/23 07:20:17;;;;;;;2.40;2.10;;;24.40;99.90;24.80;100251.00;;;;4969375;28;118004;-63
2023/06/23 07:22:44;;;;;;;8.13;2.40;;;24.50;99.90;24.80;100249.00;;;;4962960;28;89223;-64
2023/06/23 07:25:09;;;;;;;1.95;1.75;;;24.60;99.90;24.90;100249.00;;;;4970451;28;87784;-64
2023/06/23 07:27:36;;;;;;;3.90;2.47;;;24.60;99.90;24.90;100259.00;;;;4962373;28;88030;-64
2023/06/23 07:30:03;;;;;;;2.85;1.83;;;24.70;99.90;24.90;100256.00;;;;4971607;28;117411;-64
2023/06/23 07:32:28;;;;;;;2.03;1.92;;;24.70;99.90;24.90;100251.00;;;;4965738;28;110042;-64
2023/06/23 07:34:54;;;;;;;2.15;1.90;;;24.70;99.90;24.90;100264.00;;;;4967609;28;109869;-64
2023/06/23 07:37:20;;;;;;;4.30;2.30;;;24.60;99.90;24.90;100272.00;;;;4956922;28;107261;-64
2023/06/23 07:39:45;;;;;;;2.10;1.63;;;24.70;99.90;25.00;100281.00;;;;4975317;28;101038;-64
2023/06/23 07:42:11;;;;;;;7.95;1.73;;;24.80;99.90;25.10;100276.00;;;;4974948;28;117719;-64
2023/06/23 07:44:37;;;;;;;2.70;1.85;;;24.90;99.90;25.20;100284.00;;;;4973526;28;109267;-64
2023/06/23 07:47:03;;;;;;;3.58;2.13;;;25.00;99.90;25.40;100284.00;;;;4974176;28;98898;-64
2023/06/23 07:49:29;;;;;;;1.70;1.60;;;25.10;99.90;25.50;100289.00;;;;4978014;28;88711;-64
2023/06/23 07:52:00;;;;;;;4.22;2.42;;;25.20;99.90;25.60;100291.00;;;;4974748;28;106804;-64
2023/06/23 07:54:27;;;;;;;1.70;1.52;;;25.30;99.90;25.60;100293.00;;;;4972394;28;87878;-64
2023/06/23 07:56:53;;;;;;;3.30;2.25;;;25.40;99.90;25.70;100299.00;;;;4971319;28;91293;-64
2023/06/23 07:59:18;;;;;;;2.00;1.77;;;25.40;99.90;25.80;100296.00;;;;4956690;28;87793;-64
2023/06/23 08:01:44;;;;;;;2.65;2.20;;;25.50;99.90;25.90;100300.00;;;;4968656;28;116343;-65
2023/06/23 08:04:10;;;;;;;1.65;1.55;;;25.60;99.90;26.10;100304.00;;;;4968718;28;110094;-65
2023/06/23 08:06:35;;;;;;;1.38;1.27;;;25.80;99.90;26.20;100297.00;;;;4967940;28;106381;-65
2023/06/23 08:09:01;;;;;;;3.10;1.40;;;25.90;99.90;26.30;100306.00;;;;4958370;28;117773;-65
2023/06/23 08:11:27;;;;;;;4.07;1.70;;;26.00;99.90;26.40;100289.00;;;;4974728;28;88569;-65
2023/06/23 08:13:53;;;;;;;3.80;1.15;;;26.10;99.90;26.60;100295.00;;;;4975995;28;110700;-63
2023/06/23 08:16:19;;;;;;;1.95;1.52;;;26.30;99.90;26.60;100299.00;;;;4971965;28;87699;-66
2023/06/23 08:18:45;;;;;;;6.93;1.45;;;26.40;99.90;26.60;100296.00;;;;4973202;28;91510;-64
2023/06/23 08:21:10;;;;;;;2.65;1.65;;;26.40;99.90;26.50;100296.00;;;;4972921;28;88530;-64
2023/06/23 08:23:36;;;;;;;0.95;0.75;;;26.30;99.90;26.30;100297.00;;;;4971003;28;109714;-64
2023/06/23 08:26:21;;;;;;;3.20;1.10;;;26.10;99.90;26.00;100302.00;;;;4980562;28;108435;-64
2023/06/23 08:28:47;;;;;;;2.97;1.08;;;25.90;99.90;25.90;100308.00;;;;4969983;28;116920;-64
2023/06/23 08:31:12;;;;;;;0.68;0.68;;;25.80;99.90;26.00;100302.00;;;;4973089;28;88906;-63
2023/06/23 08:33:39;;;;;;;2.75;0.85;;;25.80;99.90;26.10;100302.00;;;;4974448;28;110430;-64
2023/06/23 08:36:06;;;;;;;1.58;1.10;;;25.90;99.90;26.30;100311.00;;;;4972640;28;87827;-63
2023/06/23 08:38:31;;;;;;;2.83;0.80;;;26.00;99.90;26.50;100305.00;;;;4964603;28;88968;-63
2023/06/23 08:40:58;;;;;;;2.55;1.25;;;26.20;99.90;26.60;100318.00;;;;4972380;28;116309;-64
2023/06/23 08:43:27;;;;;;;2.95;1.00;;;26.30;99.90;26.50;100308.00;;;;4957603;28;87888;-64
2023/06/23 08:46:02;;;;;;;4.45;1.08;;;26.30;99.90;26.30;100320.00;;;;4975700;28;87715;-64
2023/06/23 08:48:30;;;;;;;2.13;0.85;;;26.20;99.90;26.20;100324.00;;;;4968010;28;88277;-65
2023/06/23 08:50:58;;;;;;;0.65;0.50;;;26.10;99.90;26.20;100322.00;;;;4967703;28;97995;-64
2023/06/23 08:53:25;;;;;;;0.45;0.40;;;26.00;99.90;26.10;100324.00;;;;4972558;28;87893;-64
2023/06/23 08:55:52;;;;;;;0.63;0.43;;;25.90;99.90;25.90;100342.00;;;;4971878;28;88749;-64
2023/06/23 08:58:21;;;;;;;0.82;0.55;;;25.80;99.90;25.80;100330.00;;;;4962026;28;88228;-65
2023/06/23 09:00:49;;;;;;;3.10;0.70;;;25.60;99.90;25.70;100326.00;;;;4962654;28;87984;-64
2023/06/23 09:03:15;;;;;;;0.75;0.47;;;25.50;99.90;25.60;100344.00;;;;4972340;28;87743;-64
2023/06/23 09:05:41;;;;;;;2.42;0.60;;;25.40;99.90;25.60;100352.00;;;;4967471;28;88010;-64
2023/06/23 09:08:08;;;;;;;0.22;0.20;;;25.40;99.90;25.60;100360.00;;;;4970129;28;88926;-64
2023/06/23 09:10:33;;;;;;;0.50;0.25;;;25.40;99.90;25.50;100363.00;;;;4965757;28;91223;-64
2023/06/23 09:13:18;;;;;;;0.35;0.30;;;25.30;99.90;25.40;100364.00;;;;4968539;28;109797;-64
2023/06/23 09:15:46;;;;;;;2.63;1.13;;;25.20;99.90;25.40;100370.00;;;;4965558;28;87924;-64
2023/06/23 09:18:14;;;;;;;0.98;0.73;;;25.20;99.20;25.40;100375.00;;;;4966838;28;88943;-64
2023/06/23 09:20:45;;;;;;;0.88;0.85;;;25.20;98.50;25.30;100367.00;;;;4968299;28;88370;-64
2023/06/23 09:23:22;;;;;;;2.17;0.90;;;25.10;97.40;25.10;100380.00;;;;4970522;28;88037;-64
2023/06/23 09:25:50;;;;;;;1.27;0.52;;;25.00;98.00;25.00;100385.00;;;;4951954;28;88202;-64
2023/06/23 09:28:28;;;;;;;0.55;0.55;;;24.80;97.80;24.90;100390.00;;;;4969364;28;103748;-65
2023/06/23 09:31:07;;;;;;;0.60;0.60;;;24.80;98.40;24.80;100399.00;;;;4955964;28;88417;-65
2023/06/23 09:33:32;;;;;;;0.80;0.68;;;24.60;98.60;24.80;100398.00;;;;4969775;28;87989;-64
2023/06/23 09:36:04;;;;;;;1.00;0.75;;;24.60;98.90;24.70;100406.00;;;;4967989;28;109089;-64
2023/06/23 09:38:35;;;;;;;1.08;0.73;;;24.50;99.00;24.70;100406.00;;;;4959617;28;87170;-64
2023/06/23 09:41:07;;;;;;;1.98;1.40;;;24.50;99.20;24.70;100403.00;;;;4962310;28;87609;-64
2023/06/23 09:43:50;;;;;;;0.47;0.43;;;24.40;99.40;24.70;100407.00;;;;4949525;28;87693;-64
2023/06/23 09:46:19;;;;;;;0.38;0.38;;;24.50;99.90;24.80;100417.00;;;;4971394;28;89022;-64
2023/06/23 09:48:46;;;;;;;1.30;0.77;;;24.50;99.90;24.90;100420.00;;;;4968655;28;87944;-65
2023/06/23 09:51:12;;;;;;;1.05;0.63;;;24.60;99.50;24.90;100419.00;;;;4969383;28;95939;-64
2023/06/23 09:53:40;;;;;;;0.90;0.70;;;24.60;98.60;24.80;100410.00;;;;4967726;28;110299;-64
2023/06/23 09:56:17;;;;;;;1.23;1.00;;;24.60;97.70;24.80;100413.00;;;;4967859;28;87981;-64
2023/06/23 09:58:44;;;;;;;0.60;0.60;;;24.60;97.70;24.80;100416.00;;;;4970002;28;87731;-64
2023/06/23 10:01:12;;;;;;;0.90;0.60;;;24.50;97.50;24.80;100412.00;;;;4968395;28;89310;-65
2023/06/23 10:03:43;;;;;;;0.60;0.60;;;24.50;97.00;24.80;100425.00;;;;4969913;28;86951;-64
2023/06/23 10:06:21;;;;;;;4.47;1.10;;;24.50;96.70;24.70;100423.00;;;;4971779;28;87727;-64
2023/06/23 10:08:46;;;;;;;0.65;0.50;;;24.50;96.50;24.70;100418.00;;;;4967368;28;88918;-64
2023/06/23 10:11:12;;;;;;;0.93;0.50;;;24.50;96.20;24.70;100430.00;;;;4967446;28;88566;-65
2023/06/23 10:13:38;;;;;;;0.60;0.60;;;24.40;95.60;24.70;100417.00;;;;4952282;28;109808;-64
2023/06/23 10:16:04;;;;;;;0.65;0.55;;;24.40;95.10;24.70;100416.00;;;;4968679;28;87734;-65
2023/06/23 10:18:31;;;;;;;0.60;0.60;;;24.50;95.30;24.90;100421.00;;;;4971823;28;88304;-64
2023/06/23 10:20:57;;;;;;;0.80;0.47;;;24.60;95.60;25.20;100418.00;;;;4952420;28;88747;-65
2023/06/23 10:23:25;;;;;;;1.40;0.77;;;24.80;94.80;25.60;100401.00;;;;4954565;28;112017;-65
2023/06/23 10:25:54;;;;;;;0.50;0.47;;;25.10;94.50;26.00;100425.00;;;;4955486;28;109743;-65
2023/06/23 10:28:22;;;;;;;0.73;0.68;;;25.50;93.70;26.30;100426.00;;;;4955715;28;88068;-65
2023/06/23 10:30:48;;;;;;;0.52;0.30;;;25.80;93.20;26.50;100425.00;;;;4968034;28;115992;-65
2023/06/23 10:33:19;;;;;;;0.63;0.63;;;26.00;91.40;26.70;100423.00;;;;4968978;28;110887;-65
2023/06/23 10:35:48;;;;;;;0.70;0.45;;;26.20;90.40;26.70;100425.00;;;;4970899;28;88770;-65
2023/06/23 10:38:22;;;;;;;1.13;0.60;;;26.40;87.30;26.70;100422.00;;;;4949787;28;87883;-65
2023/06/23 10:40:54;;;;;;;1.33;0.77;;;26.40;86.50;26.50;100427.00;;;;4968715;28;110362;-66
2023/06/23 10:43:21;;;;;;;0.90;0.40;;;26.30;85.00;26.40;100440.00;;;;4968838;28;88041;-65
2023/06/23 10:45:48;;;;;;;1.15;0.47;;;26.20;84.60;26.40;100450.00;;;;4971041;28;107278;-66
2023/06/23 10:48:15;;;;;;;1.00;0.88;;;26.10;86.00;26.20;100443.00;;;;4967770;28;88524;-65
2023/06/23 10:50:41;;;;;;;0.40;0.40;;;26.00;84.90;26.10;100454.00;;;;4955397;28;116519;-65
2023/06/23 10:53:18;;;;;;;0.50;0.50;;;25.90;84.60;26.00;100452.00;;;;4967086;28;110516;-65
2023/06/23 10:55:54;;;;;;;1.65;0.82;;;25.80;84.50;26.00;100438.00;;;;4953920;28;90697;-65